Clintonville, WI (54929)

10:19 PM CDT on April 25, 2015 (GMT -0500)
Clintonville Municipal | | Change Station
CLOSE
Current Station
Airport
Location: Clintonville,
Elevation: 823 ft
Nearby Weather Stations

Elev 823 ft 44.62 °N, 88.73 °W | Updated 4 minutes ago

Clear
Clear
41 °F
Feels Like 39 °F
N
4
Wind Variable Wind from NNE

Today
High -- | Low -- °F
--% Chance of Precip.
Yesterday
High -- | Low -- °F
Precip. -- in
5:54 AM 7:52 PM
First Quarter, 51% visible
Pressure 29.94 in
Visibility 10.0 miles
Clouds Clear
Windchill 39 °F
Dew Point 18 °F
Humidity 39%
Rainfall 0.00 in
Snow Depth Not available.
UV 0 out of 12
Pollen 8.00 out of 12
Air Quality Not available.
Flu Activity Local Activity
METAR KCLI 260315Z AUTO 03003KT 10SM CLR 05/M08 A2994 RMK AO2

More Conditions Fewer Conditions

Pressure 29.94 in
Visibility 10.0 miles
Clouds Clear
Windchill 39 °F
Dew Point 18 °F
Humidity 39%
Rainfall 0.00 in
Snow Depth Not available.
UV 0 out of 12
Pollen 8.00 out of 12
Air Quality Not available.
Flu Activity Local Activity
METAR KCLI 260315Z AUTO 03003KT 10SM CLR 05/M08 A2994 RMK AO2

More Conditions Fewer Conditions

The full scope of the disaster following a powerful 7.8-magnitude earthquake in Nepal may not come into view for days, but global charities are already sending emergency aid. Click to see how you can help.

10-Day Weather Forecast

Almanac

Astronomy

Apr. 25, 2015 Rise Set
Actual Time
Civil Twilight
Nautical Twilight
Astronomical Twilight
Moon
Length of Visible Light
Length of Day
Tomorrow will be .
, % of the Moon is Illuminated

Today's Extremes

State Highs State Lows

Community

WunderPhotos

Upload Photos

1,816,918 photos uploaded!

WunderBlogs® & News

Nearby

Air Quality

  Air Quality AQ Index Pollutant
Not available.

Snow Depth

Station Depth Elevation

Earthquake Activity

City Distance Mag. Time & Date
Minimum magnitude displayed is 2.5.

Coastal Water Temperatures

Place Temperature

Stations

Nearby Weather Stations

Station Location Temp. Windchill Dew Point Humidity Wind Precip. Elev Updated Type